EDNY METAR and TAF | Updated Today

EDNY METAR

Friedrichshafen Airport

Observation time: 8 min. ago

EDNY 291950Z 00000KT 9999 -RA BKN052 09/09 Q1005

Need help? Read our tutorial on how to read METARs or read the parsed version below.

Friedrichshafen Airport (EDNY) METAR

  • Weather conditions on Thu, 29 Sep 2022 19:50:00 +0000 (8 min. ago):
  • Present conditions: Light rain
  • Clouds: Broken sky at 1585 meters
  • Visibility: Greater than 10 km
  • Wind: Calm
  • Temperature: 9 celsius
  • Dew point: 9 celsius
  • Pressure: 1005 millibars
  • Remarks: None


Useful to know...

EDNY TAF

Friedrichshafen Airport

TAF EDNY 291700Z 2918/3018 VRB03KT 9999 BKN045 PROB30 TEMPO 2921/3007 4500 BR BKN006
Observation time: 2:58 hr. ago
Need help? Read our tutorial on how to read TAFs or read the parsed version below.

Parsed version of TAF for Friedrichshafen Airport (EDNY)

  • From 29 September at 18:00 UTC, to day 30 of the month at 18:00 UTC
  • Clouds: Broken sky at 1372 meters
  • Visibility: Greater than 10 km
  • Wind: Variable at 3
  • Expected to arise temporarily, from 29 September at 21:00 UTC, to day 30 of the month at 07:00 UTC
    Probability of 30%
  • Clouds: Broken sky at 183 meters
  • Visibility: 4500 meters
  • Other: Mist